Time;durP1;ratioP1;P1;durP2;ratioP2;P2;SDS_P1;SDS_P2;PMS_P1;PMS_P2;Temp;Humidity;BMP_temperature;BMP_pressure;BME280_temperature;BME280_humidity;BME280_pressure;Samples;Min_cycle;Max_cycle;Signal;HPM_P1;HPM_P2
2021/09/08 05:37:41;;;;;;;14.30;12.85;;;;;;;13.18;100.00;100808.91;2599574;47;20124;-74
2021/09/08 05:40:10;;;;;;;15.63;10.43;;;;;;;13.22;100.00;100810.34;2592979;55;20134;-71
2021/09/08 05:42:39;;;;;;;14.40;11.20;;;;;;;13.30;100.00;100807.00;2593079;55;20115;-70
2021/09/08 05:45:08;;;;;;;19.08;10.23;;;;;;;13.37;100.00;100810.84;2592973;55;20112;-74
2021/09/08 05:47:36;;;;;;;12.35;9.27;;;;;;;13.42;100.00;100803.25;2593122;55;20124;-75
2021/09/08 05:50:04;;;;;;;12.45;8.10;;;;;;;13.45;100.00;100803.03;2593009;55;20127;-70
2021/09/08 05:52:32;;;;;;;13.52;8.43;;;;;;;13.53;100.00;100794.31;2587844;55;20120;-74
2021/09/08 05:55:01;;;;;;;12.00;8.80;;;;;;;13.58;100.00;100796.63;2593030;55;20660;-70
2021/09/08 05:57:29;;;;;;;13.10;9.18;;;;;;;13.60;100.00;100800.88;2593157;55;20537;-71
2021/09/08 05:59:57;;;;;;;15.48;9.25;;;;;;;13.61;100.00;100790.97;2593231;55;20108;-70
2021/09/08 06:02:25;;;;;;;13.20;7.75;;;;;;;13.65;100.00;100797.78;2593145;55;20135;-71
2021/09/08 06:04:53;;;;;;;10.77;7.37;;;;;;;13.71;100.00;100788.34;2593037;55;20125;-74
2021/09/08 06:07:20;;;;;;;10.13;7.22;;;;;;;13.74;100.00;100797.00;2592745;55;20131;-74
2021/09/08 06:09:48;;;;;;;12.60;6.85;;;;;;;13.69;100.00;100774.25;2593043;55;20116;-70
2021/09/08 06:12:17;;;;;;;12.40;6.68;;;;;;;13.87;100.00;100790.53;2592976;55;20118;-74
2021/09/08 06:14:45;;;;;;;12.63;7.43;;;;;;;13.89;100.00;100788.56;2592945;55;20122;-70
2021/09/08 06:17:13;;;;;;;9.63;6.62;;;;;;;13.94;100.00;100796.19;2593018;55;20101;-74
2021/09/08 06:19:41;;;;;;;10.48;6.62;;;;;;;13.95;100.00;100804.13;2592978;55;20516;-71
2021/09/08 06:22:08;;;;;;;11.77;6.62;;;;;;;13.97;100.00;100812.87;2592895;55;20124;-70
2021/09/08 06:24:36;;;;;;;8.35;6.37;;;;;;;13.95;100.00;100804.13;2592945;55;20100;-70
2021/09/08 06:27:04;;;;;;;14.07;7.05;;;;;;;13.97;100.00;100803.97;2592798;55;20134;-71
2021/09/08 06:29:33;;;;;;;9.20;5.90;;;;;;;13.97;100.00;100799.47;2592993;55;20101;-70
2021/09/08 06:32:01;;;;;;;13.30;7.35;;;;;;;13.98;100.00;100800.28;2592954;55;20121;-70
2021/09/08 06:34:29;;;;;;;10.77;7.55;;;;;;;13.98;100.00;100798.47;2592918;55;20112;-70
2021/09/08 06:36:57;;;;;;;14.93;7.85;;;;;;;14.02;100.00;100799.06;2586494;55;20117;-70
2021/09/08 06:39:24;;;;;;;12.48;7.10;;;;;;;14.05;100.00;100794.28;2589406;55;20135;-70
2021/09/08 06:41:52;;;;;;;10.45;6.93;;;;;;;14.11;100.00;100795.56;2589537;55;20105;-70
2021/09/08 06:44:23;;;;;;;17.75;8.10;;;;;;;14.17;100.00;100786.13;2589522;55;20131;-73
2021/09/08 06:46:52;;;;;;;11.07;7.05;;;;;;;14.26;100.00;100793.34;2589261;55;20109;-73
2021/09/08 06:49:20;;;;;;;8.98;6.95;;;;;;;14.30;100.00;100769.75;2589393;55;20122;-74
2021/09/08 06:51:48;;;;;;;13.32;8.18;;;;;;;14.32;100.00;100779.34;2589422;55;20646;-73
2021/09/08 06:54:15;;;;;;;10.50;7.15;;;;;;;14.37;100.00;100775.41;2589426;55;20108;-70
2021/09/08 06:56:44;;;;;;;18.73;7.20;;;;;;;14.41;100.00;100783.06;2589426;55;20138;-70
2021/09/08 06:59:11;;;;;;;12.43;7.97;;;;;;;14.43;100.00;100780.22;2589449;55;20112;-70
2021/09/08 07:01:39;;;;;;;11.82;8.15;;;;;;;14.49;100.00;100774.28;2589282;55;20120;-71
2021/09/08 07:04:08;;;;;;;10.10;7.20;;;;;;;14.59;100.00;100769.78;2589318;55;20120;-74
2021/09/08 07:06:36;;;;;;;11.98;7.20;;;;;;;14.66;100.00;100780.81;2589207;55;20514;-70
2021/09/08 07:09:04;;;;;;;11.50;6.55;;;;;;;14.77;100.00;100770.94;2589409;55;20108;-73
2021/09/08 07:11:32;;;;;;;11.65;6.50;;;;;;;14.89;100.00;100778.72;2589353;55;20195;-74
2021/09/08 07:14:00;;;;;;;10.75;6.80;;;;;;;15.06;100.00;100776.31;2589270;55;20618;-74
2021/09/08 07:16:28;;;;;;;9.38;6.30;;;;;;;15.23;100.00;100765.78;2589189;55;20124;-74
2021/09/08 07:18:56;;;;;;;10.30;5.72;;;;;;;15.36;100.00;100755.59;2589223;55;20138;-73
2021/09/08 07:21:25;;;;;;;8.73;5.53;;;;;;;15.48;100.00;100756.25;2589233;55;20133;-72
2021/09/08 07:23:53;;;;;;;9.93;5.97;;;;;;;15.84;100.00;100760.94;2589171;55;20104;-74
2021/09/08 07:26:21;;;;;;;16.27;6.78;;;;;;;15.90;100.00;100756.81;2589214;55;20511;-73
2021/09/08 07:28:49;;;;;;;9.93;6.10;;;;;;;16.05;100.00;100749.09;2589370;55;20651;-73
2021/09/08 07:31:16;;;;;;;8.25;5.50;;;;;;;16.25;100.00;100765.97;2589264;55;20518;-73
2021/09/08 07:33:44;;;;;;;14.63;6.50;;;;;;;16.23;100.00;100767.97;2589246;55;20471;-73
2021/09/08 07:36:12;;;;;;;7.62;6.00;;;;;;;16.25;100.00;100765.97;2589136;55;20109;-73
2021/09/08 07:38:41;;;;;;;11.70;5.87;;;;;;;16.28;100.00;100754.88;2589505;55;20131;-74
2021/09/08 07:41:09;;;;;;;11.70;5.90;;;;;;;16.30;100.00;100765.50;2589130;55;20125;-74
2021/09/08 07:43:37;;;;;;;12.98;6.18;;;;;;;16.32;100.00;100764.38;2589370;55;20169;-73
2021/09/08 07:46:04;;;;;;;7.43;5.60;;;;;;;16.31;100.00;100768.06;2589234;55;20125;-70
2021/09/08 07:48:32;;;;;;;8.88;5.40;;;;;;;16.26;100.00;100764.97;2589050;55;20138;-70
2021/09/08 07:51:00;;;;;;;9.13;5.50;;;;;;;16.18;100.00;100781.88;2589056;55;20170;-73
2021/09/08 07:53:28;;;;;;;8.52;5.65;;;;;;;16.11;100.00;100764.62;2589167;55;20173;-73
2021/09/08 07:55:57;;;;;;;9.57;6.00;;;;;;;16.06;100.00;100778.53;2589160;55;20535;-73
2021/09/08 07:58:25;;;;;;;12.75;5.60;;;;;;;16.04;100.00;100779.69;2589127;55;20105;-70
2021/09/08 08:00:52;;;;;;;9.80;6.03;;;;;;;16.09;100.00;100782.78;2589268;55;20526;-70
2021/09/08 08:03:21;;;;;;;8.35;5.53;;;;;;;16.07;100.00;100774.00;2583874;55;20135;-70
2021/09/08 08:05:49;;;;;;;19.50;6.97;;;;;;;16.02;100.00;100784.34;2589270;55;20522;-70
2021/09/08 08:08:17;;;;;;;9.73;6.32;;;;;;;15.91;100.00;100772.81;2583782;55;20123;-70
2021/09/08 08:10:45;;;;;;;10.45;7.10;;;;;;;15.85;100.00;100784.16;2589169;55;20125;-73
2021/09/08 08:13:14;;;;;;;9.90;6.03;;;;;;;15.78;100.00;100788.41;2589408;55;20608;-74
2021/09/08 08:15:42;;;;;;;11.38;6.80;;;;;;;15.70;100.00;100784.62;2588963;55;20160;-70
2021/09/08 08:18:10;;;;;;;11.85;6.50;;;;;;;15.64;100.00;100779.84;2589023;55;20134;-74
2021/09/08 08:20:38;;;;;;;14.63;8.10;;;;;;;15.68;100.00;100775.00;2583692;55;20124;-70
2021/09/08 08:23:06;;;;;;;10.07;6.85;;;;;;;15.70;100.00;100773.84;2589250;55;20459;-74
2021/09/08 08:25:34;;;;;;;14.05;6.78;;;;;;;15.74;100.00;100782.47;2588995;55;20127;-73
2021/09/08 08:28:04;;;;;;;10.77;6.72;;;;;;;15.77;100.00;100782.19;2589214;55;20117;-70
2021/09/08 08:30:34;;;;;;;12.63;8.32;;;;;;;15.78;100.00;100780.34;2588944;55;20124;-70
2021/09/08 08:33:04;;;;;;;11.63;7.60;;;;;;;15.72;100.00;100782.63;2589121;55;20126;-70
2021/09/08 08:35:33;;;;;;;8.00;5.93;;;;;;;15.70;100.00;100767.66;2588876;55;20108;-73
2021/09/08 08:38:01;;;;;;;9.48;6.53;;;;;;;15.69;100.00;100774.03;2589109;55;20168;-73
2021/09/08 08:40:31;;;;;;;16.98;7.60;;;;;;;15.69;100.00;100780.22;2588948;55;20147;-74
2021/09/08 08:43:00;;;;;;;7.37;5.60;;;;;;;15.77;100.00;100781.34;2588996;55;20123;-70
2021/09/08 08:45:28;;;;;;;8.52;6.87;;;;;;;15.77;100.00;100773.28;2589039;55;20126;-73
2021/09/08 08:47:59;;;;;;;11.60;6.78;;;;;;;15.80;100.00;100778.34;2589009;55;20121;-70
2021/09/08 08:50:27;;;;;;;10.27;7.43;;;;;;;15.77;100.00;100778.66;2589040;55;20118;-74
2021/09/08 08:52:57;;;;;;;12.98;7.05;;;;;;;15.74;100.00;100778.97;2589312;55;20641;-74
2021/09/08 08:55:25;;;;;;;8.30;6.93;;;;;;;15.77;100.00;100767.91;2588970;55;20144;-70
2021/09/08 08:57:53;;;;;;;9.88;7.05;;;;;;;15.79;100.00;100779.34;2589025;55;20130;-73
2021/09/08 09:00:23;;;;;;;9.93;6.30;;;;;;;15.83;100.00;100768.16;2588781;55;20118;-74
2021/09/08 09:02:52;;;;;;;9.40;6.87;;;;;;;15.85;100.00;100773.38;2588945;55;20130;-70
2021/09/08 09:05:45;;;;;;;11.23;6.90;;;;;;;15.98;100.00;100765.84;2588809;55;20093;-70
2021/09/08 09:08:14;;;;;;;10.88;6.95;;;;;;;15.90;100.00;100762.19;2583480;55;20131;-74
2021/09/08 09:10:43;;;;;;;11.45;6.30;;;;;;;15.97;100.00;100756.06;2588811;55;20131;-70
2021/09/08 09:13:11;;;;;;;22.48;7.30;;;;;;;16.18;100.00;100752.28;2588909;55;20480;-74
2021/09/08 09:15:39;;;;;;;23.90;7.72;;;;;;;16.36;100.00;100754.12;2588920;55;20107;-70
2021/09/08 09:18:07;;;;;;;8.90;6.57;;;;;;;16.47;100.00;100755.75;2588871;55;20104;-74
2021/09/08 09:20:39;;;;;;;9.55;5.93;;;;;;;16.48;100.00;100762.81;2588830;55;20537;-71
2021/09/08 09:23:09;;;;;;;8.07;6.50;;;;;;;16.52;100.00;100748.91;2589172;55;20100;-70
2021/09/08 09:25:39;;;;;;;9.55;6.32;;;;;;;16.53;100.00;100758.69;2588906;55;20511;-74
2021/09/08 09:28:08;;;;;;;9.43;5.97;;;;;;;16.58;100.00;100771.66;2588936;55;20121;-70
2021/09/08 09:30:38;;;;;;;9.98;6.18;;;;;;;16.53;100.00;100753.31;2588878;55;20101;-73
2021/09/08 09:33:06;;;;;;;9.13;5.80;;;;;;;16.63;100.00;100752.34;2588859;55;20126;-74
2021/09/08 09:35:34;;;;;;;9.93;6.22;;;;;;;16.85;100.00;100750.22;2588802;55;20273;-70
2021/09/08 09:38:04;;;;;;;8.95;6.25;;;;;;;16.95;100.00;100761.75;2588923;55;20487;-70
2021/09/08 09:40:35;;;;;;;8.73;5.50;;;;;;;17.01;100.00;100757.59;2588699;55;20105;-70
2021/09/08 09:43:04;;;;;;;10.85;8.20;;;;;;;17.13;100.00;100752.78;2588972;55;20498;-70
2021/09/08 09:45:34;;;;;;;10.75;7.65;;;;;;;17.28;100.00;100756.59;2588588;55;20120;-70
2021/09/08 09:48:04;;;;;;;8.37;6.80;;;;;;;17.49;100.00;100748.16;2588684;55;20124;-70
2021/09/08 09:50:33;;;;;;;9.43;5.80;;;;;;;17.76;100.00;100750.78;2588618;55;20602;-70
2021/09/08 09:53:03;;;;;;;6.00;5.37;;;;;;;18.04;100.00;100743.31;2588708;55;20122;-74
2021/09/08 09:55:34;;;;;;;7.25;4.60;;;;;;;18.14;98.80;100740.50;2588694;55;20116;-74
2021/09/08 09:58:02;;;;;;;6.82;5.30;;;;;;;18.06;100.00;100752.09;2588702;55;20109;-74
2021/09/08 10:00:30;;;;;;;12.02;7.40;;;;;;;17.90;99.42;100747.47;2588692;55;20488;-70
2021/09/08 10:02:58;;;;;;;8.55;4.93;;;;;;;17.70;100.00;100749.59;2583401;55;20127;-70
2021/09/08 10:05:26;;;;;;;13.25;5.10;;;;;;;17.54;100.00;100747.66;2588705;55;20120;-74
2021/09/08 10:07:54;;;;;;;12.35;6.03;;;;;;;17.44;100.00;100744.25;2588671;55;20530;-74
2021/09/08 10:10:27;;;;;;;6.07;4.97;;;;;;;17.37;100.00;100750.25;2588535;55;20112;-70
2021/09/08 10:13:01;;;;;;;9.95;5.30;;;;;;;17.40;100.00;100732.91;2589236;55;20108;-70
2021/09/08 10:15:32;;;;;;;5.70;4.97;;;;;;;17.37;100.00;100747.56;2589464;55;20124;-74
2021/09/08 10:18:07;;;;;;;5.53;4.57;;;;;;;17.43;100.00;100747.91;2589440;55;20113;-74
2021/09/08 10:20:35;;;;;;;6.95;5.03;;;;;;;17.43;100.00;100747.91;2589407;55;20124;-73
2021/09/08 10:23:08;;;;;;;8.15;4.85;;;;;;;17.41;100.00;100736.44;2589569;55;20134;-71
2021/09/08 10:25:36;;;;;;;7.80;5.62;;;;;;;17.37;100.00;100744.88;2584321;55;20658;-70
2021/09/08 10:28:06;;;;;;;6.55;5.07;;;;;;;17.33;100.00;100748.03;2589434;55;20506;-70
2021/09/08 10:30:35;;;;;;;14.73;6.30;;;;;;;17.31;100.00;100745.50;2589331;55;20105;-70
2021/09/08 10:33:05;;;;;;;9.02;4.75;;;;;;;17.28;100.00;100751.22;2589382;55;20625;-70
2021/09/08 10:35:38;;;;;;;7.03;5.10;;;;;;;17.24;100.00;100749.84;2589285;55;20120;-74
2021/09/08 10:38:13;;;;;;;15.32;6.30;;;;;;;17.27;100.00;100744.12;2589515;55;20683;-75
2021/09/08 10:40:43;;;;;;;7.62;5.50;;;;;;;17.26;100.00;100747.84;2589434;55;20499;-75
2021/09/08 10:43:12;;;;;;;7.82;4.25;;;;;;;17.30;100.00;100746.50;2589378;55;20510;-74
2021/09/08 10:45:51;;;;;;;8.32;4.57;;;;;;;17.35;100.00;100736.09;2589341;55;20120;-71
2021/09/08 10:48:40;;;;;;;9.38;4.50;;;;;;;17.41;100.00;100744.53;2589392;55;20113;-67
2021/09/08 10:51:10;;;;;;;7.72;4.62;;;;;;;17.38;100.00;100751.94;2589332;55;20177;-69
2021/09/08 10:53:40;;;;;;;7.60;4.87;;;;;;;17.37;100.00;100734.06;2589315;55;20235;-67
2021/09/08 10:56:09;;;;;;;6.95;4.57;;;;;;;17.39;100.00;100732.06;2589310;55;20109;-68
2021/09/08 10:59:01;;;;;;;9.20;4.30;;;;;;;17.50;100.00;100732.78;2589416;55;20105;-67
2021/09/08 11:01:30;;;;;;;12.63;4.60;;;;;;;17.45;100.00;100730.56;2589393;55;20176;-67
2021/09/08 11:03:58;;;;;;;9.63;5.00;;;;;;;17.47;100.00;100733.13;2589358;55;20660;-70
2021/09/08 11:06:38;;;;;;;9.73;5.10;;;;;;;17.52;100.00;100731.63;2589317;55;20125;-68
2021/09/08 11:09:09;;;;;;;9.75;4.40;;;;;;;17.45;100.00;100730.56;2589325;55;20626;-70
2021/09/08 11:11:50;;;;;;;10.10;5.20;;;;;;;17.48;100.00;100734.81;2589379;55;20115;-70
2021/09/08 11:14:19;;;;;;;9.48;5.35;;;;;;;17.33;100.00;100732.69;2589462;55;20112;-67
2021/09/08 11:16:47;;;;;;;11.43;5.60;;;;;;;17.24;100.00;100733.69;2589459;55;20127;-68
2021/09/08 11:19:17;;;;;;;7.97;4.62;;;;;;;17.25;100.00;100732.66;2589381;55;20564;-67
2021/09/08 11:21:45;;;;;;;9.10;5.35;;;;;;;17.26;100.00;100731.66;2589149;55;20656;-67
2021/09/08 11:24:14;;;;;;;8.75;4.90;;;;;;;17.24;100.00;100733.69;2589311;55;20620;-67
2021/09/08 11:26:43;;;;;;;10.38;5.55;;;;;;;17.21;100.00;100723.19;2589185;55;20622;-70
2021/09/08 11:29:12;;;;;;;9.95;5.60;;;;;;;17.13;100.00;100726.69;2589285;55;20130;-68
2021/09/08 11:31:42;;;;;;;20.35;6.45;;;;;;;17.20;100.00;100726.88;2589188;55;20498;-67
2021/09/08 11:34:21;;;;;;;7.53;4.17;;;;;;;17.23;100.00;100726.56;2589232;55;20163;-67
2021/09/08 11:36:50;;;;;;;6.07;3.70;;;;;;;17.18;100.00;100740.50;2589329;55;20163;-68
2021/09/08 11:39:18;;;;;;;7.75;4.12;;;;;;;17.22;100.00;100735.66;2589182;55;20166;-71
2021/09/08 11:41:58;;;;;;;6.47;3.70;;;;;;;17.27;100.00;100729.78;2589443;55;20219;-68
2021/09/08 11:44:26;;;;;;;6.18;4.85;;;;;;;17.22;100.00;100746.44;2589342;55;20657;-68
2021/09/08 11:46:56;;;;;;;7.78;3.62;;;;;;;17.36;100.00;100740.47;2589130;55;20135;-71
2021/09/08 11:49:24;;;;;;;5.62;3.50;;;;;;;17.36;100.00;100742.31;2589041;55;20622;-71
2021/09/08 11:51:52;;;;;;;4.62;3.40;;;;;;;17.36;100.00;100747.72;2589258;55;20108;-70
2021/09/08 11:54:22;;;;;;;6.18;3.75;;;;;;;17.40;100.00;100738.31;2589198;55;20187;-67
2021/09/08 11:56:54;;;;;;;4.95;4.07;;;;;;;17.40;100.00;100749.09;2589293;55;20142;-70
2021/09/08 11:59:27;;;;;;;5.90;3.90;;;;;;;17.21;100.00;100733.97;2589076;55;20757;-71
2021/09/08 12:01:56;;;;;;;5.72;3.85;;;;;;;17.26;100.00;100747.84;2589172;55;20171;-68
2021/09/08 12:04:26;;;;;;;5.03;3.75;;;;;;;17.25;100.00;100748.84;2589184;55;20499;-71
2021/09/08 12:06:59;;;;;;;5.93;4.00;;;;;;;17.24;100.00;100757.94;2589286;55;20109;-67
2021/09/08 12:09:28;;;;;;;6.78;3.53;;;;;;;17.20;100.00;100753.84;2589219;55;20545;-67
2021/09/08 12:11:57;;;;;;;6.60;4.05;;;;;;;17.13;100.00;100752.78;2589225;55;20113;-71
2021/09/08 12:14:39;;;;;;;5.57;3.50;;;;;;;17.10;100.00;100757.50;2589226;55;20109;-68
2021/09/08 12:17:20;;;;;;;5.18;3.70;;;;;;;16.98;100.00;100756.03;2589073;55;20109;-71
2021/09/08 12:19:54;;;;;;;6.05;4.05;;;;;;;16.87;100.00;100767.06;2589330;55;20468;-71
2021/09/08 12:22:25;;;;;;;7.45;4.50;;;;;;;16.71;100.00;100763.22;2589291;55;20689;-70
2021/09/08 12:24:55;;;;;;;5.53;4.17;;;;;;;16.64;100.00;100762.97;2589061;55;20234;-68
2021/09/08 12:27:29;;;;;;;5.70;4.22;;;;;;;16.60;100.00;100771.53;2589220;55;20157;-71
2021/09/08 12:29:58;;;;;;;7.05;4.37;;;;;;;16.54;100.00;100760.38;2588959;55;20135;-68
2021/09/08 12:32:49;;;;;;;6.05;5.18;;;;;;;16.63;100.00;100752.34;2589052;55;20109;-70
2021/09/08 12:35:37;;;;;;;6.72;4.43;;;;;;;16.57;100.00;100761.06;2588932;55;20532;-71
2021/09/08 12:38:21;;;;;;;5.65;4.95;;;;;;;16.51;100.00;100757.97;2589036;55;20126;-70
2021/09/08 12:41:14;;;;;;;7.30;5.03;;;;;;;16.44;100.00;100748.84;2589275;55;20109;-67
2021/09/08 12:43:44;;;;;;;11.82;4.70;;;;;;;16.35;100.00;100744.38;2589141;55;20153;-67
2021/09/08 12:46:13;;;;;;;5.07;3.90;;;;;;;16.39;100.00;100751.12;2588908;55;20127;-68
2021/09/08 12:48:42;;;;;;;6.45;4.55;;;;;;;16.34;100.00;100740.81;2588947;55;20535;-70
2021/09/08 12:51:11;;;;;;;7.80;5.00;;;;;;;16.25;100.00;100742.59;2588857;55;20116;-70
2021/09/08 12:53:39;;;;;;;9.77;6.12;;;;;;;16.23;100.00;100749.13;2589309;55;20549;-67
2021/09/08 12:56:07;;;;;;;8.27;5.72;;;;;;;16.19;100.00;100740.50;2588999;55;20116;-67
2021/09/08 12:58:36;;;;;;;10.15;5.60;;;;;;;16.17;100.00;100731.75;2588946;55;20116;-67
2021/09/08 13:01:03;;;;;;;6.93;4.97;;;;;;;16.16;100.00;100726.50;2588812;55;20127;-67
2021/09/08 13:03:31;;;;;;;10.15;5.80;;;;;;;16.11;100.00;100730.50;2588912;55;20126;-66
2021/09/08 13:06:01;;;;;;;8.07;5.57;;;;;;;16.14;100.00;100732.06;2588944;55;20127;-67
2021/09/08 13:08:28;;;;;;;8.75;5.50;;;;;;;16.09;100.00;100737.88;2588885;55;20101;-70
2021/09/08 13:10:57;;;;;;;8.32;5.12;;;;;;;16.08;100.00;100728.13;2588997;55;20116;-66
2021/09/08 13:13:26;;;;;;;8.20;5.75;;;;;;;16.06;100.00;100727.41;2583811;55;20117;-66
2021/09/08 13:15:53;;;;;;;7.80;5.47;;;;;;;16.09;100.00;100724.44;2588943;55;20525;-71
2021/09/08 13:18:21;;;;;;;8.10;6.10;;;;;;;16.13;100.00;100714.19;2588827;55;20127;-71
2021/09/08 13:20:49;;;;;;;7.57;5.50;;;;;;;16.16;100.00;100711.22;2589018;55;20718;-70
2021/09/08 13:23:18;;;;;;;8.15;5.93;;;;;;;16.16;100.00;100705.81;2589015;55;20130;-67
2021/09/08 13:25:46;;;;;;;6.40;4.90;;;;;;;16.14;100.00;100705.13;2588775;55;20612;-70
2021/09/08 13:28:14;;;;;;;7.57;5.35;;;;;;;16.13;100.00;100695.34;2588784;55;20514;-71
2021/09/08 13:30:41;;;;;;;7.07;5.45;;;;;;;16.16;100.00;100697.75;2588796;55;20661;-67
2021/09/08 13:33:09;;;;;;;6.87;4.82;;;;;;;16.22;100.00;100707.87;2589106;55;20502;-67
2021/09/08 13:35:37;;;;;;;10.05;5.95;;;;;;;16.20;100.00;100709.88;2588905;55;20131;-67
2021/09/08 13:38:05;;;;;;;7.85;4.85;;;;;;;16.19;100.00;100700.12;2588970;55;20124;-67
2021/09/08 13:40:34;;;;;;;7.87;4.37;;;;;;;16.23;100.00;100688.06;2588750;55;20109;-67
2021/09/08 13:43:02;;;;;;;6.87;5.05;;;;;;;16.25;100.00;100686.06;2588882;55;20124;-66
2021/09/08 13:45:30;;;;;;;7.68;4.55;;;;;;;16.28;100.00;100691.13;2588714;55;20166;-66
2021/09/08 13:47:57;;;;;;;6.07;4.47;;;;;;;16.26;100.00;100685.06;2589240;55;20119;-67
2021/09/08 13:50:25;;;;;;;8.68;4.82;;;;;;;16.33;100.00;100682.59;2584053;55;20127;-66
2021/09/08 13:52:53;;;;;;;8.13;5.68;;;;;;;16.34;100.00;100681.59;2589487;55;20138;-70
2021/09/08 13:55:21;;;;;;;8.85;5.22;;;;;;;16.35;100.00;100691.34;2589742;55;20127;-66
2021/09/08 13:57:50;;;;;;;9.05;5.00;;;;;;;16.40;100.00;100691.75;2589515;55;20112;-70
2021/09/08 14:00:18;;;;;;;6.70;4.43;;;;;;;16.40;100.00;100683.69;2589539;55;20109;-67
2021/09/08 14:02:46;;;;;;;7.18;4.90;;;;;;;16.42;100.00;100688.88;2589449;55;20147;-70
2021/09/08 14:05:14;;;;;;;7.57;5.20;;;;;;;16.44;100.00;100673.44;2589420;55;20520;-67
2021/09/08 14:07:42;;;;;;;8.82;5.18;;;;;;;16.43;100.00;100677.13;2589499;55;20123;-67
2021/09/08 14:10:10;;;;;;;9.15;4.82;;;;;;;16.40;100.00;100682.81;2589518;55;20124;-67
2021/09/08 14:12:38;;;;;;;7.00;4.93;;;;;;;16.38;100.00;100682.13;2589554;55;20640;-67
2021/09/08 14:15:08;;;;;;;7.93;4.78;;;;;;;16.33;100.00;100679.91;2589367;55;20104;-67
2021/09/08 14:17:36;;;;;;;7.00;4.85;;;;;;;16.30;100.00;100679.38;2589541;55;20109;-70
2021/09/08 14:20:06;;;;;;;6.40;5.28;;;;;;;16.23;100.00;100671.06;2589479;55;20132;-67
2021/09/08 14:22:34;;;;;;;7.37;5.05;;;;;;;16.22;100.00;100664.81;2589422;55;20623;-70
2021/09/08 14:25:02;;;;;;;8.13;5.53;;;;;;;16.23;100.00;100661.16;2589389;55;20112;-70
2021/09/08 14:27:30;;;;;;;9.55;5.70;;;;;;;16.22;100.00;100654.06;2589612;55;20171;-70
2021/09/08 14:29:58;;;;;;;8.18;5.65;;;;;;;16.24;100.00;100648.53;2589543;55;20117;-67
2021/09/08 14:32:27;;;;;;;11.25;5.75;;;;;;;16.20;100.00;100653.38;2589516;55;20105;-67
2021/09/08 14:34:55;;;;;;;10.15;7.35;;;;;;;16.15;100.00;100642.25;2589371;55;20127;-67
2021/09/08 14:37:24;;;;;;;14.07;6.45;;;;;;;16.14;100.00;100640.53;2589562;55;20108;-71
2021/09/08 14:39:52;;;;;;;10.38;6.47;;;;;;;16.12;100.00;100631.75;2589445;55;20109;-71
2021/09/08 14:42:20;;;;;;;13.07;6.45;;;;;;;16.10;100.00;100633.75;2589651;55;20125;-67
2021/09/08 14:44:47;;;;;;;8.48;6.75;;;;;;;16.09;100.00;100632.06;2589570;55;20123;-71
2021/09/08 14:47:15;;;;;;;9.68;7.18;;;;;;;16.05;100.00;100630.72;2589331;55;20111;-67
2021/09/08 14:49:44;;;;;;;11.07;7.25;;;;;;;16.04;100.00;100618.25;2589386;55;20127;-67
2021/09/08 14:52:12;;;;;;;15.68;11.27;;;;;;;16.05;100.00;100625.31;2584080;55;20124;-71
2021/09/08 14:54:40;;;;;;;10.25;8.20;;;;;;;16.03;100.00;100624.59;2589358;55;20517;-67
2021/09/08 14:57:08;;;;;;;9.63;6.32;;;;;;;16.06;100.00;100622.47;2589193;55;20113;-67
2021/09/08 14:59:36;;;;;;;8.57;6.22;;;;;;;16.11;100.00;100627.37;2589123;55;20533;-71
2021/09/08 15:02:07;;;;;;;9.68;6.00;;;;;;;16.09;100.00;100621.31;2589246;55;20127;-67
2021/09/08 15:04:36;;;;;;;11.52;5.70;;;;;;;16.11;100.00;100616.63;2589484;55;20121;-71
2021/09/08 15:07:06;;;;;;;8.52;5.75;;;;;;;16.08;100.00;100615.09;2589217;55;20134;-67
2021/09/08 15:09:34;;;;;;;7.60;5.82;;;;;;;16.08;100.00;100615.09;2589261;55;20173;-67
2021/09/08 15:12:01;;;;;;;11.07;6.03;;;;;;;16.09;100.00;100610.53;2589282;55;20118;-71
2021/09/08 15:14:30;;;;;;;6.15;4.75;;;;;;;16.10;100.00;100617.63;2589339;55;20150;-71
2021/09/08 15:16:58;;;;;;;8.35;5.82;;;;;;;16.06;100.00;100606.31;2589366;55;20133;-67
2021/09/08 15:19:26;;;;;;;9.88;6.28;;;;;;;16.10;100.00;100605.03;2589133;55;20123;-67
2021/09/08 15:21:54;;;;;;;10.98;5.87;;;;;;;16.08;100.00;100598.09;2589265;55;20500;-67
2021/09/08 15:24:23;;;;;;;7.37;4.85;;;;;;;16.08;100.00;100606.16;2589281;55;20116;-71
2021/09/08 15:26:51;;;;;;;5.80;4.72;;;;;;;16.08;100.00;100603.47;2589356;55;20519;-67
2021/09/08 15:29:19;;;;;;;9.10;5.00;;;;;;;16.10;100.00;100606.84;2584190;55;20124;-71
2021/09/08 15:31:47;;;;;;;7.57;5.53;;;;;;;16.10;100.00;100596.09;2589094;55;20117;-71
2021/09/08 15:34:16;;;;;;;8.52;5.15;;;;;;;16.08;100.00;100604.34;2589162;55;20618;-71
2021/09/08 15:36:44;;;;;;;8.00;5.32;;;;;;;16.12;100.00;100604.84;2589071;55;20116;-70
2021/09/08 15:39:12;;;;;;;6.93;5.35;;;;;;;16.09;100.00;100600.66;2589390;55;20120;-67
2021/09/08 15:41:42;;;;;;;7.82;5.20;;;;;;;16.06;100.00;100603.63;2589182;55;20131;-70
2021/09/08 15:44:10;;;;;;;7.95;5.10;;;;;;;16.05;100.00;100601.09;2583986;55;20113;-71
2021/09/08 15:46:37;;;;;;;8.75;4.82;;;;;;;16.04;100.00;100599.41;2589366;55;20127;-71
2021/09/08 15:49:05;;;;;;;7.75;4.95;;;;;;;16.07;100.00;100601.78;2589259;55;20203;-67
2021/09/08 15:51:33;;;;;;;9.25;5.57;;;;;;;16.05;100.00;100601.09;2589177;55;20121;-67
2021/09/08 15:54:01;;;;;;;8.10;4.68;;;;;;;16.10;100.00;100601.47;2589155;55;20160;-70
2021/09/08 15:56:29;;;;;;;7.97;4.65;;;;;;;16.07;100.00;100596.41;2589161;55;20111;-71
2021/09/08 15:58:58;;;;;;;9.27;5.40;;;;;;;16.06;100.00;100594.72;2589094;55;20109;-71
2021/09/08 16:01:26;;;;;;;6.00;4.68;;;;;;;16.08;100.00;100587.34;2588941;55;20116;-70
2021/09/08 16:03:54;;;;;;;6.68;5.37;;;;;;;16.06;100.00;100595.53;2589035;55;20701;-71
2021/09/08 16:06:22;;;;;;;8.30;5.22;;;;;;;16.07;100.00;100591.03;2589156;55;20630;-67
2021/09/08 16:08:49;;;;;;;6.60;5.07;;;;;;;16.08;100.00;100587.34;2589198;55;20160;-70
2021/09/08 16:11:19;;;;;;;10.88;5.97;;;;;;;16.08;100.00;100582.81;2588735;55;20127;-67
2021/09/08 16:13:47;;;;;;;15.20;7.18;;;;;;;16.10;100.00;100596.94;2589124;55;20113;-67
2021/09/08 16:16:16;;;;;;;9.00;6.12;;;;;;;16.11;100.00;100589.69;2589016;55;20129;-67
2021/09/08 16:18:44;;;;;;;8.00;5.53;;;;;;;16.12;100.00;100588.69;2589107;55;20171;-67
2021/09/08 16:21:12;;;;;;;7.50;5.55;;;;;;;16.09;100.00;100599.78;2589001;55;20180;-70
2021/09/08 16:23:40;;;;;;;9.80;6.72;;;;;;;16.02;100.00;100593.31;2589233;55;20097;-67
2021/09/08 16:26:08;;;;;;;11.07;7.40;;;;;;;16.04;100.00;100591.34;2589316;55;20120;-67
2021/09/08 16:28:35;;;;;;;8.77;6.12;;;;;;;16.04;100.00;100602.94;2589138;55;20105;-67
2021/09/08 16:31:03;;;;;;;7.82;5.87;;;;;;;16.08;100.00;100600.78;2588927;55;20125;-70
2021/09/08 16:33:32;;;;;;;10.60;6.30;;;;;;;16.05;100.00;100603.78;2589050;55;20119;-71
2021/09/08 16:36:00;;;;;;;8.48;6.30;;;;;;;16.10;100.00;100601.47;2588920;55;20109;-66
2021/09/08 16:38:28;;;;;;;8.07;6.35;;;;;;;16.06;100.00;100602.78;2583812;55;20131;-71
2021/09/08 16:40:56;;;;;;;10.27;5.85;;;;;;;16.04;100.00;100610.19;2589047;55;20113;-70
2021/09/08 16:43:24;;;;;;;7.43;5.87;;;;;;;15.98;100.00;100604.41;2588996;55;20120;-71
2021/09/08 16:45:52;;;;;;;7.80;5.28;;;;;;;15.97;100.00;100613.47;2588950;55;20648;-67
2021/09/08 16:48:20;;;;;;;10.10;5.78;;;;;;;15.92;100.00;100602.31;2583936;55;20129;-70
2021/09/08 16:50:49;;;;;;;6.68;5.37;;;;;;;15.83;100.00;100603.19;2589026;55;20605;-66
2021/09/08 16:53:17;;;;;;;8.35;5.82;;;;;;;15.63;100.00;100599.81;2589022;55;20164;-67
2021/09/08 16:55:45;;;;;;;7.70;5.97;;;;;;;15.67;100.00;100623.56;2588864;55;20130;-67
2021/09/08 16:58:13;;;;;;;11.38;7.72;;;;;;;15.60;100.00;100617.09;2588911;55;20625;-67
2021/09/08 17:00:41;;;;;;;10.73;5.97;;;;;;;15.50;100.00;100622.53;2588880;55;20127;-67